Time;durP1;ratioP1;P1;durP2;ratioP2;P2;SDS_P1;SDS_P2;PMS_P1;PMS_P2;Temp;Humidity;BMP_temperature;BMP_pressure;BME280_temperature;BME280_humidity;BME280_pressure;Samples;Min_cycle;Max_cycle;Signal;HPM_P1;HPM_P2
2022/03/02 05:11:21;;;;;;;;;;;3.20;1.00;;;;;;5150758;27;19911;-68
2022/03/02 05:13:47;;;;;;;;;;;3.30;1.00;;;;;;5151346;27;19918;-69
2022/03/02 05:16:13;;;;;;;;;;;;;;;;;;5151063;27;19908;-72
2022/03/02 05:18:41;;;;;;;;;;;3.50;1.00;;;;;;5151023;27;19907;-69
2022/03/02 05:21:07;;;;;;;;;;;3.40;1.00;;;;;;5132858;27;19990;-68
2022/03/02 05:23:32;;;;;;;;;;;3.20;1.00;;;;;;5150507;27;19952;-68
2022/03/02 05:25:58;;;;;;;;;;;3.10;1.00;;;;;;5151406;27;20260;-68
2022/03/02 05:28:24;;;;;;;;;;;3.10;1.00;;;;;;5150348;27;19907;-69
2022/03/02 05:30:49;;;;;;;;;;;3.10;1.00;;;;;;5151035;27;19984;-68
2022/03/02 05:33:15;;;;;;;;;;;;;;;;;;5150859;27;20329;-72
2022/03/02 05:35:40;;;;;;;;;;;3.00;1.00;;;;;;5150851;27;19932;-68
2022/03/02 05:38:07;;;;;;;;;;;3.00;1.00;;;;;;5151052;27;19907;-68
2022/03/02 05:40:32;;;;;;;;;;;2.90;1.00;;;;;;5150427;27;20791;-68
2022/03/02 05:42:59;;;;;;;;;;;3.00;1.00;;;;;;5150971;27;19998;-68
2022/03/02 05:45:24;;;;;;;;;;;3.10;1.00;;;;;;5149980;27;19908;-68
2022/03/02 05:47:50;;;;;;;;;;;3.10;1.00;;;;;;5150850;27;19915;-68
2022/03/02 05:50:15;;;;;;;;;;;;;;;;;;5150334;27;19923;-72
2022/03/02 05:52:41;;;;;;;;;;;3.20;1.00;;;;;;5150455;27;19907;-68
2022/03/02 05:55:07;;;;;;;;;;;3.20;1.00;;;;;;5132174;27;19930;-68
2022/03/02 05:57:32;;;;;;;;;;;3.20;1.00;;;;;;5149833;27;19907;-69
2022/03/02 05:59:58;;;;;;;;;;;3.20;1.00;;;;;;5150540;27;20405;-68
2022/03/02 06:02:23;;;;;;;;;;;3.20;1.00;;;;;;5149761;27;19915;-69
2022/03/02 06:04:49;;;;;;;;;;;;;;;;;;5150481;27;19907;-68
2022/03/02 06:07:15;;;;;;;;;;;;;;;;;;5150273;27;20430;-72
2022/03/02 06:09:41;;;;;;;;;;;3.20;1.00;;;;;;5149617;27;19970;-69
2022/03/02 06:12:07;;;;;;;;;;;3.30;1.00;;;;;;5150252;27;19911;-68
2022/03/02 06:14:32;;;;;;;;;;;3.20;1.00;;;;;;5149424;27;19915;-69
2022/03/02 06:16:58;;;;;;;;;;;3.30;1.00;;;;;;5150270;27;20385;-64
2022/03/02 06:19:24;;;;;;;;;;;;;;;;;;5149326;27;20420;-68
2022/03/02 06:21:50;;;;;;;;;;;3.30;1.00;;;;;;5139751;27;20309;-68
2022/03/02 06:24:15;;;;;;;;;;;;;;;;;;5136130;27;19911;-71
2022/03/02 06:26:41;;;;;;;;;;;3.30;1.00;;;;;;5135636;27;19907;-67
2022/03/02 06:29:07;;;;;;;;;;;3.30;1.00;;;;;;5136152;27;20006;-67
2022/03/02 06:31:33;;;;;;;;;;;3.40;1.00;;;;;;5135305;27;19919;-66
2022/03/02 06:33:59;;;;;;;;;;;3.30;1.00;;;;;;5117732;27;20384;-65
2022/03/02 06:36:24;;;;;;;;;;;3.30;1.00;;;;;;5135131;27;20002;-67
2022/03/02 06:38:50;;;;;;;;;;;3.20;1.00;;;;;;5136019;27;19946;-66
2022/03/02 06:41:16;;;;;;;;;;;;;;;;;;5135925;27;19919;-68
2022/03/02 06:43:46;;;;;;;;;;;3.20;1.00;;;;;;5135321;27;19907;-66
2022/03/02 06:46:16;;;;;;;;;;;3.20;1.00;;;;;;5135912;27;19915;-68
2022/03/02 06:48:47;;;;;;;;;;;3.10;1.00;;;;;;5135007;27;19980;-67
2022/03/02 06:51:14;;;;;;;;;;;3.20;1.00;;;;;;5135907;27;19930;-68
2022/03/02 06:53:42;;;;;;;;;;;3.00;1.00;;;;;;5134963;27;20510;-68
2022/03/02 06:56:08;;;;;;;;;;;3.20;1.00;;;;;;5135678;27;19956;-68
2022/03/02 06:58:40;;;;;;;;;;;3.10;1.00;;;;;;5134838;27;19911;-68
2022/03/02 07:01:06;;;;;;;;;;;;;;;;;;5135516;27;19918;-68
2022/03/02 07:03:34;;;;;;;;;;;3.20;1.00;;;;;;5134778;27;20348;-68
2022/03/02 07:06:00;;;;;;;;;;;3.20;1.00;;;;;;5135437;27;19956;-66
2022/03/02 07:08:26;;;;;;;;;;;3.10;1.00;;;;;;5134619;27;19907;-68
2022/03/02 07:10:52;;;;;;;;;;;3.20;1.00;;;;;;5135122;27;19923;-67
2022/03/02 07:13:17;;;;;;;;;;;3.10;1.00;;;;;;5135511;27;19911;-67
2022/03/02 07:15:43;;;;;;;;;;;3.20;1.00;;;;;;5133949;27;19964;-68
2022/03/02 07:18:09;;;;;;;;;;;;;;;;;;5122790;27;19911;-69
2022/03/02 07:20:41;;;;;;;;;;;3.20;1.00;;;;;;5123850;27;20409;-68
2022/03/02 07:23:08;;;;;;;;;;;3.30;1.00;;;;;;5117021;27;19915;-68
2022/03/02 07:25:36;;;;;;;;;;;3.30;1.00;;;;;;5113777;28;20360;-68
2022/03/02 07:28:03;;;;;;;;;;;3.40;1.00;;;;;;5114490;28;20006;-68
2022/03/02 07:30:29;;;;;;;;;;;3.40;1.00;;;;;;5113853;28;19911;-67
2022/03/02 07:32:56;;;;;;;;;;;3.40;1.00;;;;;;5113604;28;20417;-67
2022/03/02 07:35:21;;;;;;;;;;;;;;;;;;5113988;28;20280;-71
2022/03/02 07:37:47;;;;;;;;;;;3.60;1.00;;;;;;5114075;28;19915;-67
2022/03/02 07:40:13;;;;;;;;;;;3.70;1.00;;;;;;5114607;28;19961;-67
2022/03/02 07:42:38;;;;;;;;;;;3.60;1.00;;;;;;5113396;28;19912;-67
2022/03/02 07:45:04;;;;;;;;;;;3.90;1.00;;;;;;5114012;28;19918;-67
2022/03/02 07:47:30;;;;;;;;;;;3.90;1.00;;;;;;5113292;28;19908;-67
2022/03/02 07:49:56;;;;;;;;;;;;;;;;;;5113995;28;20002;-67
2022/03/02 07:52:25;;;;;;;;;;;4.00;1.00;;;;;;5114765;27;19908;-66
2022/03/02 07:54:57;;;;;;;;;;;4.20;1.00;;;;;;5114399;27;20294;-65
2022/03/02 07:57:23;;;;;;;;;;;;;;;;;;5135996;27;19930;-67
2022/03/02 07:59:49;;;;;;;;;;;4.30;1.00;;;;;;5135901;27;20396;-65
2022/03/02 08:02:15;;;;;;;;;;;4.20;1.00;;;;;;5117476;27;19973;-64
2022/03/02 08:04:41;;;;;;;;;;;4.30;1.00;;;;;;5133512;27;19911;-65
2022/03/02 08:07:07;;;;;;;;;;;4.40;1.00;;;;;;5134215;27;19915;-65
2022/03/02 08:09:34;;;;;;;;;;;4.50;1.00;;;;;;5133095;27;19919;-65
2022/03/02 08:12:01;;;;;;;;;;;4.50;1.00;;;;;;5134415;27;19912;-67
2022/03/02 08:14:27;;;;;;;;;;;4.50;1.00;;;;;;5133508;27;19907;-66
2022/03/02 08:16:52;;;;;;;;;;;4.60;1.00;;;;;;5134338;27;19912;-66
2022/03/02 08:19:18;;;;;;;;;;;4.60;1.00;;;;;;5134010;27;19994;-66
2022/03/02 08:21:46;;;;;;;;;;;4.70;1.00;;;;;;5133240;27;19943;-66
2022/03/02 08:24:12;;;;;;;;;;;4.70;1.00;;;;;;5133857;27;19907;-66
2022/03/02 08:26:39;;;;;;;;;;;4.60;1.00;;;;;;5133165;27;19915;-66
2022/03/02 08:29:06;;;;;;;;;;;4.60;1.00;;;;;;5133818;27;19912;-66
2022/03/02 08:31:32;;;;;;;;;;;4.70;1.00;;;;;;5132975;27;19957;-66
2022/03/02 08:33:59;;;;;;;;;;;4.60;1.00;;;;;;5133628;27;19907;-66
2022/03/02 08:36:25;;;;;;;;;;;;;;;;;;5133204;27;19930;-70
2022/03/02 08:38:51;;;;;;;;;;;4.70;1.00;;;;;;5133591;27;20002;-66
2022/03/02 08:41:20;;;;;;;;;;;4.70;1.00;;;;;;5133575;27;19998;-66
2022/03/02 08:43:46;;;;;;;;;;;;;;;;;;5132556;27;19907;-66
2022/03/02 08:46:11;;;;;;;;;;;4.90;1.00;;;;;;5133604;27;20048;-66
2022/03/02 08:48:37;;;;;;;;;;;4.90;1.00;;;;;;5132779;27;19915;-66
2022/03/02 08:51:03;;;;;;;;;;;5.00;1.00;;;;;;5133667;27;19911;-66
2022/03/02 08:53:30;;;;;;;;;;;5.00;1.00;;;;;;5132797;27;20376;-66
2022/03/02 08:55:55;;;;;;;;;;;;;;;;;;5133356;27;19915;-66
2022/03/02 08:58:21;;;;;;;;;;;5.00;1.00;;;;;;5133434;27;19912;-66
2022/03/02 09:00:51;;;;;;;;;;;5.10;1.00;;;;;;5132698;27;19907;-66
2022/03/02 09:03:17;;;;;;;;;;;5.20;1.00;;;;;;5133480;27;19908;-66
2022/03/02 09:05:43;;;;;;;;;;;5.20;1.00;;;;;;5133697;27;19914;-62
2022/03/02 09:08:09;;;;;;;;;;;;;;;;;;5116271;28;19929;-63
2022/03/02 09:10:37;;;;;;;;;;;5.40;1.00;;;;;;5134570;28;19972;-66
2022/03/02 09:13:03;;;;;;;;;;;5.50;1.00;;;;;;5114894;28;19911;-66
2022/03/02 09:15:29;;;;;;;;;;;;;;;;;;5132701;28;19907;-67
2022/03/02 09:17:55;;;;;;;;;;;5.60;1.00;;;;;;5133187;28;20263;-66
2022/03/02 09:20:22;;;;;;;;;;;5.80;1.00;;;;;;5133128;28;20367;-66
2022/03/02 09:22:50;;;;;;;;;;;5.90;1.00;;;;;;5132423;28;20167;-66
2022/03/02 09:25:15;;;;;;;;;;;6.10;1.00;;;;;;5133083;28;19912;-66
2022/03/02 09:27:41;;;;;;;;;;;6.00;1.00;;;;;;5132200;28;19919;-64
2022/03/02 09:30:09;;;;;;;;;;;6.10;1.00;;;;;;5133166;28;19916;-66
2022/03/02 09:32:37;;;;;;;;;;;6.10;1.00;;;;;;5132279;28;19908;-64
2022/03/02 09:35:03;;;;;;;;;;;;;;;;;;5133152;28;19908;-65
2022/03/02 09:37:29;;;;;;;;;;;;;;;;;;5132623;28;20423;-68
2022/03/02 09:39:54;;;;;;;;;;;6.40;1.00;;;;;;5132967;28;20312;-65
2022/03/02 09:42:30;;;;;;;;;;;6.40;1.00;;;;;;5133146;28;20011;-63
2022/03/02 09:44:56;;;;;;;;;;;;;;;;;;5133242;28;19918;-64
2022/03/02 09:47:21;;;;;;;;;;;6.50;1.00;;;;;;5132074;28;19907;-65
2022/03/02 09:49:49;;;;;;;;;;;6.60;1.00;;;;;;5132162;28;19907;-63
2022/03/02 09:52:16;;;;;;;;;;;6.90;1.00;;;;;;5132963;28;20390;-63
2022/03/02 09:54:44;;;;;;;;;;;6.90;1.00;;;;;;5131895;28;19918;-64
2022/03/02 09:57:09;;;;;;;;;;;6.90;1.00;;;;;;5135688;27;20248;-64
2022/03/02 09:59:36;;;;;;;;;;;6.90;1.00;;;;;;5135564;27;19918;-64
2022/03/02 10:02:03;;;;;;;;;;;7.00;1.00;;;;;;5136689;27;19907;-64
2022/03/02 10:04:29;;;;;;;;;;;;;;;;;;5136165;27;19915;-66
2022/03/02 10:07:26;;;;;;;;;;;7.20;1.00;;;;;;5117990;27;19908;-64
2022/03/02 10:09:46;;;;;;;;;;;7.20;1.00;;;;;;5135243;27;20367;-64
2022/03/02 10:12:14;;;;;;;;;;;7.20;1.00;;;;;;5118197;27;19921;-64
2022/03/02 10:14:41;;;;;;;;;;;7.50;1.00;;;;;;5135749;27;19908;-64
2022/03/02 10:17:10;;;;;;;;;;;7.50;1.00;;;;;;5118095;27;19951;-64
2022/03/02 10:19:36;;;;;;;;;;;;;;;;;;5135556;27;19911;-63
2022/03/02 10:22:22;;;;;;;;;;;7.80;1.00;;;;;;5136550;27;19982;-63
2022/03/02 10:24:48;;;;;;;;;;;7.80;1.00;;;;;;5135523;27;20088;-64
2022/03/02 10:27:34;;;;;;;;;;;8.10;1.00;;;;;;5136283;27;19915;-63
2022/03/02 10:30:06;;;;;;;;;;;8.20;1.00;;;;;;5136473;27;19934;-65
2022/03/02 10:32:32;;;;;;;;;;;;;;;;;;5135536;27;19908;-65
2022/03/02 10:35:01;;;;;;;;;;;8.20;1.00;;;;;;5135497;27;19920;-64
2022/03/02 10:37:29;;;;;;;;;;;8.20;1.00;;;;;;5136187;27;19931;-62
2022/03/02 10:40:05;;;;;;;;;;;8.40;1.00;;;;;;5135509;27;19919;-62
2022/03/02 10:42:31;;;;;;;;;;;;;;;;;;5135832;27;20279;-65
2022/03/02 10:45:05;;;;;;;;;;;8.70;1.00;;;;;;5135723;27;19915;-64
2022/03/02 10:47:31;;;;;;;;;;;;;;;;;;5135521;27;19908;-68
2022/03/02 10:49:58;;;;;;;;;;;8.60;1.00;;;;;;5135045;27;19918;-66
2022/03/02 10:52:25;;;;;;;;;;;8.60;1.00;;;;;;5135812;27;19908;-67
2022/03/02 10:54:52;;;;;;;;;;;8.70;1.00;;;;;;5116226;27;19904;-67
2022/03/02 10:57:19;;;;;;;;;;;8.70;1.00;;;;;;5117302;27;19908;-67
2022/03/02 10:59:45;;;;;;;;;;;9.10;1.00;;;;;;5134869;27;20359;-67
2022/03/02 11:02:11;;;;;;;;;;;9.00;1.00;;;;;;5135491;27;19911;-67
2022/03/02 11:04:43;;;;;;;;;;;8.90;1.00;;;;;;5116301;27;19911;-67
2022/03/02 11:07:09;;;;;;;;;;;8.90;1.00;;;;;;5135437;27;20271;-66
2022/03/02 11:09:34;;;;;;;;;;;;;;;;;;5115837;27;19923;-69
2022/03/02 11:12:00;;;;;;;;;;;9.20;1.00;;;;;;5135286;27;19957;-66
2022/03/02 11:14:26;;;;;;;;;;;9.50;1.00;;;;;;5135291;27;19911;-66
2022/03/02 11:17:10;;;;;;;;;;;9.30;1.00;;;;;;5134542;27;19915;-66
2022/03/02 11:19:42;;;;;;;;;;;9.30;1.00;;;;;;5134522;27;20298;-67
2022/03/02 11:22:08;;;;;;;;;;;9.30;1.00;;;;;;5135471;27;19908;-66
2022/03/02 11:24:35;;;;;;;;;;;;;;;;;;5131823;27;19907;-69
2022/03/02 11:27:01;;;;;;;;;;;9.30;1.00;;;;;;5114699;28;19930;-66
2022/03/02 11:29:28;;;;;;;;;;;9.30;1.00;;;;;;5114482;28;20367;-66
2022/03/02 11:31:57;;;;;;;;;;;9.50;1.00;;;;;;5113506;28;20360;-67
2022/03/02 11:34:29;;;;;;;;;;;9.30;1.00;;;;;;5114286;27;19908;-66
2022/03/02 11:36:56;;;;;;;;;;;9.50;1.00;;;;;;5113600;28;19994;-66
2022/03/02 11:39:23;;;;;;;;;;;9.70;1.00;;;;;;5114446;28;19929;-66
2022/03/02 11:41:50;;;;;;;;;;;9.70;1.00;;;;;;5113448;28;19961;-66
2022/03/02 11:44:16;;;;;;;;;;;;;;;;;;5114385;28;19912;-67
2022/03/02 11:46:48;;;;;;;;;;;10.20;1.00;;;;;;5113425;28;19915;-67
2022/03/02 11:49:14;;;;;;;;;;;9.80;1.00;;;;;;5122606;27;19956;-66
2022/03/02 11:51:39;;;;;;;;;;;9.70;1.00;;;;;;5123646;27;19907;-66
2022/03/02 11:54:09;;;;;;;;;;;9.90;1.00;;;;;;5120123;27;20118;-66
2022/03/02 11:56:34;;;;;;;;;;;;;;;;;;5113451;27;19915;-69
2022/03/02 11:59:00;;;;;;;;;;;10.20;1.00;;;;;;5113486;28;20284;-70
2022/03/02 12:01:26;;;;;;;;;;;;;;;;;;5113851;28;20386;-67
2022/03/02 12:04:03;;;;;;;;;;;10.20;1.00;;;;;;5113241;28;19994;-67
2022/03/02 12:06:29;;;;;;;;;;;10.30;1.00;;;;;;5114065;28;19908;-67
2022/03/02 12:08:56;;;;;;;;;;;10.40;1.00;;;;;;5112600;28;19903;-67
2022/03/02 12:11:22;;;;;;;;;;;10.20;1.00;;;;;;5113728;28;19908;-67
2022/03/02 12:14:04;;;;;;;;;;;10.40;1.00;;;;;;5112787;28;19914;-67
2022/03/02 12:16:36;;;;;;;;;;;10.40;1.00;;;;;;5113589;28;20360;-67
2022/03/02 12:19:02;;;;;;;;;;;10.40;1.00;;;;;;5112707;28;20356;-67
2022/03/02 12:21:27;;;;;;;;;;;10.70;1.00;;;;;;5095182;28;19956;-67
2022/03/02 12:23:53;;;;;;;;;;;10.40;1.00;;;;;;5112713;28;19915;-67
2022/03/02 12:26:19;;;;;;;;;;;10.40;1.00;;;;;;5113499;28;19908;-67
2022/03/02 12:28:57;;;;;;;;;;;10.50;1.00;;;;;;5112566;28;19912;-67
2022/03/02 12:31:31;;;;;;;;;;;10.70;1.00;;;;;;5113454;28;19912;-67
2022/03/02 12:34:13;;;;;;;;;;;11.00;1.00;;;;;;5112487;28;19903;-67
2022/03/02 12:36:39;;;;;;;;;;;;;;;;;;5112520;28;19995;-69
2022/03/02 12:39:05;;;;;;;;;;;10.90;1.00;;;;;;5113355;28;19972;-68
2022/03/02 12:41:31;;;;;;;;;;;10.90;1.00;;;;;;5113205;28;19911;-66
2022/03/02 12:43:57;;;;;;;;;;;11.40;1.00;;;;;;5112284;28;19923;-66
2022/03/02 12:46:23;;;;;;;;;;;11.30;1.00;;;;;;5113062;28;20068;-67
2022/03/02 12:48:49;;;;;;;;;;;11.50;1.00;;;;;;5094190;28;20371;-67
2022/03/02 12:51:16;;;;;;;;;;;;;;;;;;5113248;28;19912;-67
2022/03/02 12:53:42;;;;;;;;;;;11.40;1.00;;;;;;5112242;28;19908;-67
2022/03/02 12:56:08;;;;;;;;;;;11.30;1.00;;;;;;5112961;28;19978;-67
2022/03/02 12:58:34;;;;;;;;;;;11.30;1.00;;;;;;5112882;28;20393;-67
2022/03/02 13:00:59;;;;;;;;;;;11.50;1.00;;;;;;5112134;28;19904;-67
2022/03/02 13:03:30;;;;;;;;;;;11.40;1.00;;;;;;5112948;28;19908;-67
2022/03/02 13:05:59;;;;;;;;;;;11.50;1.00;;;;;;5112063;28;19908;-67
2022/03/02 13:08:27;;;;;;;;;;;11.60;1.00;;;;;;5112956;28;19915;-67
2022/03/02 13:10:53;;;;;;;;;;;11.30;1.00;;;;;;5097772;28;20335;-67
2022/03/02 13:13:37;;;;;;;;;;;11.80;1.00;;;;;;5116849;28;19912;-67
2022/03/02 13:16:03;;;;;;;;;;;;;;;;;;5116719;28;19994;-67
2022/03/02 13:18:37;;;;;;;;;;;11.40;1.00;;;;;;5112744;28;19977;-68
2022/03/02 13:21:03;;;;;;;;;;;11.50;1.00;;;;;;5112052;28;19919;-67
2022/03/02 13:23:28;;;;;;;;;;;11.60;1.00;;;;;;5094407;28;19908;-67
2022/03/02 13:25:54;;;;;;;;;;;11.60;1.00;;;;;;5111746;28;19908;-68
2022/03/02 13:28:22;;;;;;;;;;;11.50;1.00;;;;;;5112691;28;19908;-68
2022/03/02 13:31:12;;;;;;;;;;;11.90;1.00;;;;;;5112431;28;19912;-68
2022/03/02 13:33:56;;;;;;;;;;;12.10;1.00;;;;;;5116684;28;20399;-68
2022/03/02 13:36:34;;;;;;;;;;;12.20;1.00;;;;;;5116636;28;19908;-68
2022/03/02 13:39:19;;;;;;;;;;;11.90;1.00;;;;;;5115894;27;19911;-68
2022/03/02 13:41:54;;;;;;;;;;;11.80;1.00;;;;;;5115986;28;19923;-68
2022/03/02 13:44:33;;;;;;;;;;;11.80;1.00;;;;;;5116572;28;19964;-67
2022/03/02 13:47:08;;;;;;;;;;;12.20;1.00;;;;;;5115765;28;19908;-68
2022/03/02 13:49:46;;;;;;;;;;;12.60;1.00;;;;;;5116298;28;19918;-68
2022/03/02 13:52:11;;;;;;;;;;;;;;;;;;5115967;28;19947;-65
2022/03/02 13:54:37;;;;;;;;;;;12.20;1.00;;;;;;5116212;28;19959;-68
2022/03/02 13:57:03;;;;;;;;;;;12.50;1.00;;;;;;5122837;27;19914;-68
2022/03/02 13:59:29;;;;;;;;;;;12.30;1.00;;;;;;5136834;27;20002;-68
2022/03/02 14:01:54;;;;;;;;;;;12.40;1.00;;;;;;5117522;27;20003;-68
2022/03/02 14:04:20;;;;;;;;;;;12.40;1.00;;;;;;5136784;27;19908;-68
2022/03/02 14:06:57;;;;;;;;;;;12.50;1.00;;;;;;5135907;27;19911;-68
2022/03/02 14:09:23;;;;;;;;;;;12.90;1.00;;;;;;5117834;27;19919;-68
2022/03/02 14:11:50;;;;;;;;;;;12.50;1.00;;;;;;5135755;27;19918;-68
2022/03/02 14:14:16;;;;;;;;;;;;;;;;;;5136488;27;19914;-68
2022/03/02 14:16:42;;;;;;;;;;;;;;;;;;5136391;27;19908;-70
2022/03/02 14:19:09;;;;;;;;;;;13.00;1.00;;;;;;5135907;27;19950;-68
2022/03/02 14:21:35;;;;;;;;;;;13.00;1.00;;;;;;5136413;27;20002;-68
2022/03/02 14:24:01;;;;;;;;;;;;;;;;;;5120453;27;20008;-68
2022/03/02 14:26:26;;;;;;;;;;;13.60;1.00;;;;;;5115596;27;19912;-68
2022/03/02 14:28:52;;;;;;;;;;;13.00;1.00;;;;;;5114926;28;19919;-68
2022/03/02 14:31:17;;;;;;;;;;;12.80;1.00;;;;;;5115589;28;19912;-68
2022/03/02 14:33:43;;;;;;;;;;;;;;;;;;5115518;28;19908;-69
2022/03/02 14:36:15;;;;;;;;;;;12.90;1.00;;;;;;5115309;28;20356;-68
2022/03/02 14:38:41;;;;;;;;;;;13.20;1.00;;;;;;5115647;28;20301;-68
2022/03/02 14:41:06;;;;;;;;;;;12.70;1.00;;;;;;5114979;28;19923;-68
2022/03/02 14:43:32;;;;;;;;;;;13.30;1.00;;;;;;5115409;28;20272;-68
2022/03/02 14:45:57;;;;;;;;;;;13.20;1.00;;;;;;5118107;28;19908;-68
2022/03/02 14:48:24;;;;;;;;;;;13.60;1.00;;;;;;5115955;28;19908;-69
2022/03/02 14:50:58;;;;;;;;;;;13.30;1.00;;;;;;5114360;28;19916;-71
2022/03/02 14:53:23;;;;;;;;;;;13.80;1.00;;;;;;5115372;28;19908;-71
2022/03/02 14:55:49;;;;;;;;;;;14.30;1.00;;;;;;5114188;28;19915;-72
2022/03/02 14:58:15;;;;;;;;;;;14.10;1.00;;;;;;5096762;28;19915;-74
2022/03/02 15:00:41;;;;;;;;;;;;;;;;;;5096665;28;19908;-71
2022/03/02 15:03:16;;;;;;;;;;;13.80;1.00;;;;;;5114230;28;20370;-69
2022/03/02 15:05:56;;;;;;;;;;;14.00;1.00;;;;;;5096690;28;19940;-71
2022/03/02 15:08:41;;;;;;;;;;;14.80;1.00;;;;;;5096575;28;19931;-68
2022/03/02 15:11:27;;;;;;;;;;;13.30;1.00;;;;;;5118497;27;19931;-66
2022/03/02 15:16:39;;;;;;;;;;;;;;;;;;5114314;28;19915;-67
2022/03/02 15:19:06;;;;;;;;;;;13.60;1.00;;;;;;5113928;28;19908;-67
2022/03/02 15:21:31;;;;;;;;;;;14.00;1.00;;;;;;5117641;27;19961;-67
2022/03/02 15:23:57;;;;;;;;;;;14.50;1.00;;;;;;5123709;27;20272;-67
2022/03/02 15:26:23;;;;;;;;;;;14.60;1.00;;;;;;5114452;28;19908;-66
2022/03/02 15:28:49;;;;;;;;;;;;;;;;;;5114159;28;19915;-69
2022/03/02 15:31:14;;;;;;;;;;;13.80;1.00;;;;;;5114167;28;19911;-68
2022/03/02 15:33:40;;;;;;;;;;;;;;;;;;5114428;28;19908;-68
2022/03/02 15:36:09;;;;;;;;;;;14.30;1.00;;;;;;5116290;27;19915;-67
2022/03/02 15:38:35;;;;;;;;;;;;;;;;;;5127360;27;19914;-63
2022/03/02 15:41:01;;;;;;;;;;;14.50;1.00;;;;;;5095421;28;19915;-67
2022/03/02 15:43:26;;;;;;;;;;;14.60;1.00;;;;;;5116017;27;19919;-67
2022/03/02 15:45:52;;;;;;;;;;;14.70;1.00;;;;;;5104288;27;20021;-67
2022/03/02 15:48:19;;;;;;;;;;;14.20;1.00;;;;;;5130881;27;20318;-67
2022/03/02 15:50:46;;;;;;;;;;;13.40;1.00;;;;;;5125843;27;19922;-66
2022/03/02 15:53:13;;;;;;;;;;;13.30;1.00;;;;;;5116685;27;19912;-68
2022/03/02 15:55:40;;;;;;;;;;;13.70;1.00;;;;;;5113326;28;20368;-68
2022/03/02 15:58:06;;;;;;;;;;;;;;;;;;5113052;28;19914;-66
2022/03/02 16:00:32;;;;;;;;;;;14.20;1.00;;;;;;5113836;28;20360;-66
2022/03/02 16:02:58;;;;;;;;;;;14.40;1.00;;;;;;5112891;28;20316;-67
2022/03/02 16:05:28;;;;;;;;;;;14.30;1.00;;;;;;5113852;28;20283;-66
2022/03/02 16:07:58;;;;;;;;;;;14.30;1.00;;;;;;5112941;28;19920;-67
2022/03/02 16:10:24;;;;;;;;;;;;;;;;;;5113267;28;19955;-66
2022/03/02 16:12:50;;;;;;;;;;;;;;;;;;5095107;28;19939;-70
2022/03/02 16:15:16;;;;;;;;;;;;;;;;;;5113245;28;20379;-66
2022/03/02 16:17:42;;;;;;;;;;;13.00;1.00;;;;;;5113549;28;19951;-66
2022/03/02 16:20:15;;;;;;;;;;;13.20;1.00;;;;;;5094401;28;19972;-66
2022/03/02 16:22:41;;;;;;;;;;;12.80;1.00;;;;;;5113526;28;19915;-66
2022/03/02 16:25:16;;;;;;;;;;;12.40;1.00;;;;;;5112505;28;19911;-66
2022/03/02 16:27:41;;;;;;;;;;;12.30;1.00;;;;;;5113442;28;19908;-66
2022/03/02 16:30:07;;;;;;;;;;;12.20;1.00;;;;;;5112528;28;19960;-66
2022/03/02 16:32:32;;;;;;;;;;;12.10;1.00;;;;;;5113325;28;19930;-66
2022/03/02 16:34:58;;;;;;;;;;;12.60;1.00;;;;;;5123112;27;19915;-64
2022/03/02 16:37:24;;;;;;;;;;;13.00;1.00;;;;;;5133869;27;19914;-62
2022/03/02 16:39:50;;;;;;;;;;;;;;;;;;5133584;27;19911;-63
2022/03/02 16:42:15;;;;;;;;;;;12.30;1.00;;;;;;5133140;27;20006;-62
2022/03/02 16:44:41;;;;;;;;;;;11.90;1.00;;;;;;5133649;27;19930;-62
2022/03/02 16:47:08;;;;;;;;;;;12.20;1.00;;;;;;5133072;27;19911;-60
2022/03/02 16:49:35;;;;;;;;;;;12.40;1.00;;;;;;5133654;27;19911;-62
2022/03/02 16:52:00;;;;;;;;;;;12.80;1.00;;;;;;5132768;27;19908;-61
2022/03/02 16:54:26;;;;;;;;;;;13.10;1.00;;;;;;5133760;27;19963;-64
2022/03/02 16:56:52;;;;;;;;;;;;;;;;;;5118651;27;19931;-65
2022/03/02 16:59:18;;;;;;;;;;;13.10;1.00;;;;;;5112722;28;19969;-62
2022/03/02 17:01:44;;;;;;;;;;;12.90;1.00;;;;;;5130498;27;19911;-62
2022/03/02 17:04:09;;;;;;;;;;;11.60;1.00;;;;;;5132651;27;20381;-67
2022/03/02 17:06:47;;;;;;;;;;;11.00;1.00;;;;;;5133291;27;19915;-66
2022/03/02 17:09:16;;;;;;;;;;;10.70;1.00;;;;;;5132307;27;19916;-64
2022/03/02 17:11:42;;;;;;;;;;;10.70;1.00;;;;;;5133285;28;19950;-63
2022/03/02 17:14:07;;;;;;;;;;;10.50;1.00;;;;;;5132505;28;19994;-65
2022/03/02 17:16:33;;;;;;;;;;;10.40;1.00;;;;;;5133397;28;19957;-65
2022/03/02 17:18:59;;;;;;;;;;;10.20;1.00;;;;;;5132766;28;19908;-66
2022/03/02 17:21:24;;;;;;;;;;;10.00;1.00;;;;;;5132796;28;19950;-66
2022/03/02 17:23:50;;;;;;;;;;;9.90;1.00;;;;;;5133210;28;20016;-66
2022/03/02 17:26:16;;;;;;;;;;;;;;;;;;5123791;28;19904;-66
2022/03/02 17:28:41;;;;;;;;;;;9.60;1.00;;;;;;5112720;28;19947;-65
2022/03/02 17:31:07;;;;;;;;;;;9.30;1.00;;;;;;5112056;28;19911;-65
2022/03/02 17:33:34;;;;;;;;;;;9.40;1.00;;;;;;5112531;28;19908;-65
2022/03/02 17:35:59;;;;;;;;;;;9.20;1.00;;;;;;5111769;28;19908;-67
2022/03/02 17:38:25;;;;;;;;;;;9.10;1.00;;;;;;5094342;28;19907;-67
2022/03/02 17:40:50;;;;;;;;;;;9.00;1.00;;;;;;5118873;28;19947;-67
2022/03/02 17:43:16;;;;;;;;;;;;;;;;;;5117194;28;19915;-67
2022/03/02 17:45:41;;;;;;;;;;;8.90;1.00;;;;;;5112093;28;19908;-68
2022/03/02 17:48:07;;;;;;;;;;;;;;;;;;5111485;28;19914;-67
2022/03/02 17:50:33;;;;;;;;;;;8.80;1.00;;;;;;5094077;28;19912;-67
2022/03/02 17:52:59;;;;;;;;;;;;;;;;;;5111665;28;20002;-70
2022/03/02 17:55:25;;;;;;;;;;;8.70;1.00;;;;;;5114977;28;19912;-75
2022/03/02 17:57:50;;;;;;;;;;;8.60;1.00;;;;;;5120539;28;19912;-67
2022/03/02 18:00:16;;;;;;;;;;;;;;;;;;5108094;28;19912;-69
2022/03/02 18:02:42;;;;;;;;;;;8.70;1.00;;;;;;5109128;28;20049;-67
2022/03/02 18:05:08;;;;;;;;;;;8.80;1.00;;;;;;5111612;28;20360;-67
2022/03/02 18:07:34;;;;;;;;;;;8.90;1.00;;;;;;5123125;28;20368;-67
2022/03/02 18:10:00;;;;;;;;;;;;;;;;;;5117243;28;20008;-71
2022/03/02 18:12:27;;;;;;;;;;;;;;;;;;5111837;28;19912;-68
2022/03/02 18:14:53;;;;;;;;;;;8.90;1.00;;;;;;5111642;28;19961;-67
2022/03/02 18:17:19;;;;;;;;;;;;;;;;;;5115311;28;20048;-68
2022/03/02 18:19:44;;;;;;;;;;;8.60;1.00;;;;;;5116080;28;20363;-67
2022/03/02 18:22:12;;;;;;;;;;;8.60;1.00;;;;;;5122557;27;19911;-67
2022/03/02 18:24:37;;;;;;;;;;;8.60;1.00;;;;;;5123030;27;19985;-67
2022/03/02 18:27:03;;;;;;;;;;;8.60;1.00;;;;;;5114686;28;19998;-67
2022/03/02 18:29:31;;;;;;;;;;;;;;;;;;5115813;28;19966;-67
2022/03/02 18:31:56;;;;;;;;;;;;;;;;;;5115643;28;19912;-67
2022/03/02 18:34:25;;;;;;;;;;;8.20;1.00;;;;;;5115019;28;19908;-67
2022/03/02 18:36:51;;;;;;;;;;;8.30;1.00;;;;;;5115810;28;20371;-67
2022/03/02 18:39:26;;;;;;;;;;;8.00;1.00;;;;;;5114866;28;20424;-67
2022/03/02 18:41:52;;;;;;;;;;;7.90;1.00;;;;;;5115520;28;20352;-67
2022/03/02 18:44:19;;;;;;;;;;;7.90;1.00;;;;;;5114955;28;19908;-67
2022/03/02 18:46:45;;;;;;;;;;;;;;;;;;5115488;28;20423;-67
2022/03/02 18:49:11;;;;;;;;;;;;;;;;;;5114447;28;20053;-67
2022/03/02 18:51:37;;;;;;;;;;;;;;;;;;5115322;28;19943;-67
2022/03/02 18:54:03;;;;;;;;;;;;;;;;;;5128029;27;20283;-69
2022/03/02 18:56:28;;;;;;;;;;;7.60;1.00;;;;;;5125512;27;19914;-67
2022/03/02 18:58:54;;;;;;;;;;;7.60;1.00;;;;;;5115141;28;19973;-67
2022/03/02 19:01:20;;;;;;;;;;;7.70;1.00;;;;;;5114329;28;19987;-67
2022/03/02 19:03:46;;;;;;;;;;;7.50;1.00;;;;;;5115079;28;19915;-67
2022/03/02 19:06:15;;;;;;;;;;;7.50;1.00;;;;;;5114238;28;20335;-67
2022/03/02 19:08:40;;;;;;;;;;;7.20;1.00;;;;;;5114850;28;19953;-67
2022/03/02 19:11:07;;;;;;;;;;;7.20;1.00;;;;;;5127729;28;19920;-67
2022/03/02 19:13:33;;;;;;;;;;;7.30;1.00;;;;;;5120180;28;19908;-68
2022/03/02 19:15:59;;;;;;;;;;;;;;;;;;5114801;28;19908;-73
2022/03/02 19:18:26;;;;;;;;;;;7.50;1.00;;;;;;5114107;28;19986;-68
2022/03/02 19:20:52;;;;;;;;;;;7.60;1.00;;;;;;5096764;28;20375;-67
2022/03/02 19:23:18;;;;;;;;;;;7.60;1.00;;;;;;5095570;28;20352;-70
2022/03/02 19:25:44;;;;;;;;;;;7.40;1.00;;;;;;5114544;28;20002;-68
2022/03/02 19:28:11;;;;;;;;;;;7.50;1.00;;;;;;5097124;28;20292;-68
2022/03/02 19:30:37;;;;;;;;;;;;;;;;;;5115218;28;20410;-67
2022/03/02 19:33:03;;;;;;;;;;;;;;;;;;5114977;28;20006;-71
2022/03/02 19:35:29;;;;;;;;;;;7.30;1.00;;;;;;5098727;28;19961;-70
2022/03/02 19:37:54;;;;;;;;;;;7.40;1.00;;;;;;5118055;28;19908;-76
2022/03/02 19:40:20;;;;;;;;;;;7.30;1.00;;;;;;5129276;27;19911;-72
2022/03/02 19:42:45;;;;;;;;;;;7.20;1.00;;;;;;5119839;27;19911;-67
2022/03/02 19:45:16;;;;;;;;;;;7.30;1.00;;;;;;5117773;27;19972;-66
2022/03/02 19:47:41;;;;;;;;;;;7.30;1.00;;;;;;5117700;27;19907;-68
2022/03/02 19:50:07;;;;;;;;;;;;;;;;;;5135366;27;20414;-65
2022/03/02 19:52:33;;;;;;;;;;;7.20;1.00;;;;;;5136624;27;19908;-66
2022/03/02 19:54:59;;;;;;;;;;;7.20;1.00;;;;;;5121197;27;20360;-65
2022/03/02 19:57:25;;;;;;;;;;;7.20;1.00;;;;;;5114335;28;19904;-66
2022/03/02 19:59:51;;;;;;;;;;;7.20;1.00;;;;;;5113825;28;19908;-67
2022/03/02 20:02:19;;;;;;;;;;;7.40;1.00;;;;;;5115545;28;20006;-67
2022/03/02 20:04:45;;;;;;;;;;;7.10;1.00;;;;;;5114869;28;19912;-66
2022/03/02 20:07:10;;;;;;;;;;;7.20;1.00;;;;;;5114558;28;19973;-69
2022/03/02 20:09:38;;;;;;;;;;;7.30;1.00;;;;;;5115709;28;19958;-68
2022/03/02 20:12:04;;;;;;;;;;;;;;;;;;5115006;28;19984;-74
2022/03/02 20:14:30;;;;;;;;;;;7.20;1.00;;;;;;5096960;28;19907;-69